createdAt,value
2023-05-25T00:01:38.051Z,10.20
2023-05-25T00:04:05.428Z,10.20
2023-05-25T00:06:33.351Z,10.20
2023-05-25T00:09:00.226Z,10.10
2023-05-25T00:11:28.309Z,10.10
2023-05-25T00:13:55.833Z,10.20
2023-05-25T00:16:24.322Z,10.10
2023-05-25T00:25:37.918Z,10.10
2023-05-25T00:28:14.439Z,10.10
2023-05-25T00:33:47.490Z,10.10
2023-05-25T00:36:40.774Z,10.10
2023-05-25T00:42:02.663Z,10.10
2023-05-25T00:47:16.810Z,10.00
2023-05-25T00:52:52.539Z,10.00
2023-05-25T00:58:24.925Z,10.00
2023-05-25T01:06:37.971Z,10.10
2023-05-25T01:11:58.910Z,10.10
2023-05-25T01:14:30.133Z,10.10
2023-05-25T01:17:03.320Z,10.10
2023-05-25T01:19:33.891Z,10.10
2023-05-25T01:22:22.350Z,10.00
2023-05-25T01:24:56.272Z,10.00
2023-05-25T01:27:40.144Z,10.00
2023-05-25T01:30:12.937Z,10.00
2023-05-25T01:32:42.178Z,10.00
2023-05-25T01:35:10.201Z,10.00
2023-05-25T01:37:38.025Z,10.00
2023-05-25T01:40:08.738Z,10.00
2023-05-25T01:42:35.789Z,10.00
2023-05-25T01:45:03.699Z,9.90
2023-05-25T01:48:06.562Z,9.90
2023-05-25T01:50:59.659Z,9.90
2023-05-25T01:53:35.606Z,9.90
2023-05-25T01:56:08.918Z,9.80
2023-05-25T01:58:40.587Z,9.70
2023-05-25T02:01:09.887Z,9.60
2023-05-25T02:03:40.200Z,9.50
2023-05-25T02:06:08.350Z,9.50
2023-05-25T02:08:37.240Z,9.50
2023-05-25T02:11:06.009Z,9.40
2023-05-25T02:13:38.899Z,9.40
2023-05-25T03:33:26.516Z,8.60
2023-05-25T03:35:53.440Z,8.60
2023-05-25T03:38:20.483Z,8.50
2023-05-25T03:40:47.398Z,8.60
2023-05-25T03:43:14.283Z,8.70
2023-05-25T03:45:41.372Z,8.80
2023-05-25T03:48:08.261Z,8.90
2023-05-25T03:50:35.068Z,8.80
2023-05-25T03:53:01.848Z,8.90
2023-05-25T03:55:28.833Z,8.90
2023-05-25T03:57:55.627Z,9.00
2023-05-25T04:00:22.496Z,9.00
2023-05-25T04:02:49.354Z,9.00
2023-05-25T04:05:16.402Z,9.00
2023-05-25T04:07:46.102Z,9.10
2023-05-25T04:10:13.399Z,9.10
2023-05-25T04:12:40.333Z,9.10
2023-05-25T04:15:09.461Z,9.20
2023-05-25T04:17:39.202Z,9.20
2023-05-25T04:20:08.749Z,9.30
2023-05-25T04:22:38.891Z,9.30
2023-05-25T04:25:09.159Z,9.40
2023-05-25T04:27:36.367Z,9.40
2023-05-25T04:30:04.425Z,9.50
2023-05-25T04:32:32.153Z,9.50
2023-05-25T04:34:59.212Z,9.60
2023-05-25T04:37:30.544Z,9.60
2023-05-25T04:39:58.454Z,9.70
2023-05-25T04:42:26.975Z,9.70
2023-05-25T04:44:55.821Z,9.80
2023-05-25T04:47:25.100Z,9.90
2023-05-25T04:49:52.074Z,9.80
2023-05-25T04:52:19.084Z,9.90
2023-05-25T04:54:46.902Z,9.90
2023-05-25T04:57:13.684Z,9.90
2023-05-25T04:59:40.999Z,10.00
2023-05-25T05:02:08.689Z,10.00
2023-05-25T05:04:37.325Z,10.10
2023-05-25T05:07:04.228Z,10.10
2023-05-25T05:09:31.048Z,10.20
2023-05-25T05:11:57.897Z,10.30
2023-05-25T05:14:24.769Z,10.30
2023-05-25T05:16:52.026Z,10.40
2023-05-25T05:19:18.930Z,10.50
2023-05-25T05:21:45.816Z,10.50
2023-05-25T05:24:12.644Z,10.60
2023-05-25T05:26:55.425Z,10.70
2023-05-25T05:29:24.078Z,10.80
2023-05-25T05:31:51.144Z,10.80
2023-05-25T05:34:18.133Z,10.90
2023-05-25T05:36:56.571Z,11.10
2023-05-25T05:39:25.224Z,11.20
2023-05-25T05:41:52.152Z,11.30
2023-05-25T05:44:20.578Z,11.40
2023-05-25T05:46:47.588Z,11.50
2023-05-25T05:49:14.482Z,11.60
2023-05-25T05:51:41.663Z,11.60
2023-05-25T05:54:08.616Z,11.70
2023-05-25T05:56:35.622Z,11.80
2023-05-25T05:59:02.405Z,11.90
2023-05-25T06:01:29.269Z,11.90
2023-05-25T06:03:56.292Z,12.00
2023-05-25T06:06:23.140Z,12.00
2023-05-25T06:08:49.990Z,12.10
2023-05-25T06:11:16.787Z,12.10
2023-05-25T06:13:45.440Z,12.10
2023-05-25T06:16:13.457Z,12.20
2023-05-25T06:18:40.515Z,12.20
2023-05-25T06:21:07.327Z,12.20
2023-05-25T06:23:34.155Z,12.20
2023-05-25T06:26:07.070Z,12.20
2023-05-25T06:28:33.958Z,12.30
2023-05-25T06:31:00.741Z,12.40
2023-05-25T06:33:27.655Z,12.40
2023-05-25T06:35:58.239Z,12.40
2023-05-25T06:38:25.162Z,12.50
2023-05-25T06:40:51.988Z,12.50
2023-05-25T06:43:18.899Z,12.60
2023-05-25T06:45:46.314Z,12.60
2023-05-25T06:48:13.639Z,12.60
2023-05-25T06:50:40.574Z,12.60
2023-05-25T06:53:07.424Z,12.70
2023-05-25T06:55:34.222Z,12.80
2023-05-25T06:58:00.980Z,12.90
2023-05-25T07:00:27.786Z,12.90
2023-05-25T07:02:54.653Z,12.90
2023-05-25T07:05:22.017Z,13.10
2023-05-25T07:07:48.923Z,13.20
2023-05-25T07:10:15.821Z,13.30
2023-05-25T07:12:42.590Z,13.50
2023-05-25T07:15:10.483Z,13.60
2023-05-25T07:17:37.433Z,13.60
2023-05-25T07:20:06.321Z,13.70
2023-05-25T07:22:33.334Z,13.80
2023-05-25T07:25:00.318Z,13.90
2023-05-25T07:27:27.112Z,14.00
2023-05-25T07:29:53.946Z,14.10
2023-05-25T07:32:21.128Z,14.10
2023-05-25T07:34:47.982Z,14.10
2023-05-25T07:37:14.814Z,14.30
2023-05-25T07:39:44.792Z,14.30
2023-05-25T07:42:11.653Z,14.10
2023-05-25T07:44:38.575Z,14.20
2023-05-25T07:47:07.034Z,14.20
2023-05-25T07:49:34.011Z,14.20
2023-05-25T07:52:01.076Z,14.40
2023-05-25T07:54:27.923Z,14.40
2023-05-25T07:56:54.708Z,14.60
2023-05-25T07:59:21.549Z,14.60
2023-05-25T08:01:48.409Z,14.60
2023-05-25T08:04:15.319Z,14.60
2023-05-25T08:06:43.765Z,14.70
2023-05-25T08:09:10.729Z,14.60
2023-05-25T08:11:37.509Z,14.60
2023-05-25T08:14:04.301Z,14.70
2023-05-25T08:16:31.395Z,14.80
2023-05-25T08:18:59.780Z,15.10
2023-05-25T08:21:26.747Z,15.20
2023-05-25T08:23:54.327Z,15.30
2023-05-25T08:28:51.819Z,15.20
2023-05-25T08:31:18.634Z,15.50
2023-05-25T08:33:45.457Z,15.40
2023-05-25T08:36:12.394Z,15.50
2023-05-25T08:38:39.150Z,15.50
2023-05-25T08:41:07.166Z,15.60
2023-05-25T08:43:34.508Z,15.60
2023-05-25T08:46:06.357Z,15.70
2023-05-25T08:48:41.159Z,15.70
2023-05-25T08:51:13.310Z,15.50
2023-05-25T08:53:41.245Z,15.40
2023-05-25T08:56:18.392Z,15.30
2023-05-25T08:58:53.890Z,15.50
2023-05-25T09:01:23.088Z,15.60
2023-05-25T09:03:51.523Z,15.70
2023-05-25T09:06:18.587Z,15.70
2023-05-25T09:08:46.375Z,15.60
2023-05-25T09:11:16.918Z,15.60
2023-05-25T09:13:46.371Z,15.80
2023-05-25T09:16:13.303Z,15.80
2023-05-25T09:18:40.390Z,15.60
2023-05-25T09:21:07.254Z,15.50
2023-05-25T09:23:35.872Z,15.40
2023-05-25T09:26:03.202Z,15.40
2023-05-25T09:28:30.034Z,15.40
2023-05-25T09:30:56.979Z,15.40
2023-05-25T09:33:23.917Z,15.60
2023-05-25T09:35:51.961Z,15.70
2023-05-25T09:38:19.375Z,15.80
2023-05-25T09:40:46.691Z,16.00
2023-05-25T09:43:22.022Z,15.90
2023-05-25T09:45:55.936Z,16.00
2023-05-25T09:48:24.335Z,16.30
2023-05-25T09:50:52.105Z,16.30
2023-05-25T09:53:19.126Z,16.40
2023-05-25T09:55:53.705Z,16.30
2023-05-25T09:58:23.888Z,16.30
2023-05-25T10:00:54.688Z,16.40
2023-05-25T10:03:22.031Z,16.70
2023-05-25T10:05:49.155Z,16.70
2023-05-25T10:08:19.986Z,16.70
2023-05-25T10:10:49.920Z,16.60
2023-05-25T10:13:22.015Z,16.60
2023-05-25T10:15:52.643Z,16.60
2023-05-25T10:18:24.361Z,16.50
2023-05-25T10:20:57.256Z,16.60
2023-05-25T10:23:27.059Z,16.60
2023-05-25T10:25:58.486Z,16.60
2023-05-25T10:28:29.243Z,16.40
2023-05-25T10:30:58.147Z,16.60
2023-05-25T10:33:25.423Z,16.80
2023-05-25T10:36:09.319Z,16.90
2023-05-25T10:38:40.406Z,17.00
2023-05-25T10:41:10.872Z,17.20
2023-05-25T10:43:39.423Z,17.20
2023-05-25T10:46:07.012Z,17.10
2023-05-25T10:48:38.553Z,17.20
2023-05-25T10:51:08.362Z,17.20
2023-05-25T10:53:36.989Z,17.20
2023-05-25T10:56:05.817Z,17.20
2023-05-25T10:58:34.500Z,17.40
2023-05-25T11:01:07.913Z,17.60
2023-05-25T11:03:58.188Z,17.70
2023-05-25T11:06:37.717Z,17.70
2023-05-25T11:09:06.531Z,17.90
2023-05-25T11:11:55.570Z,17.80
2023-05-25T11:14:23.959Z,18.20
2023-05-25T11:17:12.237Z,18.50
2023-05-25T11:19:54.042Z,18.70
2023-05-25T11:22:30.695Z,18.70
2023-05-25T11:24:59.302Z,18.90
2023-05-25T11:27:29.704Z,19.10
2023-05-25T11:29:57.961Z,19.50
2023-05-25T11:32:28.773Z,19.60
2023-05-25T11:34:58.371Z,19.30
2023-05-25T11:37:28.920Z,18.90
2023-05-25T11:39:56.552Z,18.80
2023-05-25T11:42:24.824Z,19.10
2023-05-25T11:44:52.102Z,19.60
2023-05-25T11:47:25.634Z,20.20
2023-05-25T11:49:55.180Z,20.70
2023-05-25T11:52:25.164Z,20.70
2023-05-25T11:54:53.240Z,20.80
2023-05-25T11:57:27.307Z,20.80
2023-05-25T12:00:01.211Z,21.10
2023-05-25T12:02:28.287Z,21.60
2023-05-25T12:05:13.398Z,21.50
2023-05-25T12:07:58.342Z,21.40
2023-05-25T12:13:10.979Z,21.50
2023-05-25T12:15:49.594Z,21.30
2023-05-25T12:21:47.312Z,21.10
2023-05-25T12:24:19.836Z,21.60
2023-05-25T12:29:56.535Z,22.40
2023-05-25T12:33:00.250Z,22.30
2023-05-25T12:35:32.350Z,22.20
2023-05-25T12:38:19.850Z,22.30
2023-05-25T12:40:47.475Z,22.50
2023-05-25T12:43:26.653Z,22.70
2023-05-25T12:45:53.870Z,22.90
2023-05-25T12:48:26.940Z,23.00
2023-05-25T12:50:58.337Z,23.50
2023-05-25T12:53:26.226Z,23.70
2023-05-25T12:56:05.281Z,23.30
2023-05-25T12:58:32.391Z,23.60
2023-05-25T13:00:59.660Z,23.70
2023-05-25T13:10:12.284Z,23.10
2023-05-25T13:12:51.999Z,23.40
2023-05-25T13:15:23.826Z,23.80
2023-05-25T13:17:51.495Z,24.30
2023-05-25T13:20:19.756Z,24.50
2023-05-25T13:22:49.156Z,24.50
2023-05-25T13:25:17.406Z,24.50
2023-05-25T13:27:46.790Z,24.90
2023-05-25T13:30:23.365Z,24.90
2023-05-25T13:32:51.826Z,24.50
2023-05-25T13:35:42.132Z,24.70
2023-05-25T13:38:10.677Z,24.40
2023-05-25T13:40:37.623Z,24.20
2023-05-25T13:43:10.278Z,23.80
2023-05-25T13:45:38.665Z,23.70
2023-05-25T13:48:05.592Z,23.20
2023-05-25T13:50:32.437Z,22.70
2023-05-25T13:52:59.244Z,22.90
2023-05-25T13:55:26.182Z,23.40
2023-05-25T13:57:53.767Z,23.50
2023-05-25T14:00:20.925Z,23.70
2023-05-25T14:02:47.810Z,23.50
2023-05-25T14:05:14.822Z,23.20
2023-05-25T14:07:41.773Z,23.40
2023-05-25T14:10:10.037Z,23.70
2023-05-25T14:12:37.303Z,23.80
2023-05-25T14:15:05.067Z,23.90
2023-05-25T14:17:31.986Z,23.90
2023-05-25T14:19:59.077Z,23.80
2023-05-25T14:22:27.886Z,24.00
2023-05-25T14:24:54.700Z,23.90
2023-05-25T14:27:21.504Z,24.20
2023-05-25T14:29:49.085Z,24.30
2023-05-25T14:32:17.087Z,24.50
2023-05-25T14:34:44.645Z,24.40
2023-05-25T14:37:12.039Z,23.80
2023-05-25T14:39:39.062Z,23.50
2023-05-25T14:42:06.779Z,23.40
2023-05-25T14:44:33.954Z,23.50
2023-05-25T14:47:01.727Z,23.70
2023-05-25T14:49:28.591Z,23.80
2023-05-25T14:51:55.460Z,23.90
2023-05-25T14:54:22.229Z,24.00
2023-05-25T14:56:50.755Z,23.90
2023-05-25T14:59:17.667Z,24.20
2023-05-25T15:01:46.620Z,24.00
2023-05-25T15:04:14.017Z,24.00
2023-05-25T15:06:40.997Z,23.90
2023-05-25T15:09:07.877Z,24.00
2023-05-25T15:11:34.677Z,24.20
2023-05-25T15:14:01.454Z,23.80
2023-05-25T15:16:28.347Z,23.90
2023-05-25T15:18:55.185Z,23.40
2023-05-25T15:21:21.995Z,23.10
2023-05-25T15:23:48.814Z,23.20
2023-05-25T15:26:15.587Z,23.50
2023-05-25T15:28:42.412Z,23.70
2023-05-25T15:31:09.167Z,23.90
2023-05-25T15:33:48.545Z,24.00
2023-05-25T15:36:18.907Z,23.90
2023-05-25T15:38:49.268Z,23.80
2023-05-25T15:41:17.557Z,23.60
2023-05-25T15:43:58.540Z,23.50
2023-05-25T15:46:25.934Z,23.20
2023-05-25T15:48:53.333Z,23.00
2023-05-25T15:51:20.190Z,22.90
2023-05-25T15:53:47.522Z,23.10
2023-05-25T15:56:14.366Z,23.20
2023-05-25T15:58:41.229Z,23.10
2023-05-25T16:01:08.134Z,23.20
2023-05-25T16:03:34.959Z,23.10
2023-05-25T16:06:02.433Z,23.20
2023-05-25T16:08:29.238Z,23.30
2023-05-25T16:10:56.075Z,23.40
2023-05-25T16:13:23.006Z,23.50
2023-05-25T16:15:49.922Z,23.50
2023-05-25T16:18:16.825Z,23.60
2023-05-25T16:20:44.203Z,23.70
2023-05-25T16:23:11.117Z,23.60
2023-05-25T16:25:38.060Z,23.40
2023-05-25T16:28:05.161Z,23.20
2023-05-25T16:30:32.058Z,23.10
2023-05-25T16:32:58.877Z,23.20
2023-05-25T16:35:25.779Z,23.20
2023-05-25T16:37:52.570Z,23.20
2023-05-25T16:40:19.345Z,23.10
2023-05-25T16:42:46.109Z,23.30
2023-05-25T16:45:12.957Z,23.20
2023-05-25T16:47:39.756Z,23.20
2023-05-25T16:50:07.541Z,23.10
2023-05-25T16:52:34.573Z,23.00
2023-05-25T16:55:01.859Z,23.00
2023-05-25T16:57:28.751Z,23.20
2023-05-25T16:59:55.838Z,23.30
2023-05-25T17:02:22.743Z,23.20
2023-05-25T17:05:59.050Z,23.40
2023-05-25T17:08:26.107Z,23.30
2023-05-25T17:10:53.603Z,23.20
2023-05-25T17:13:21.060Z,23.30
2023-05-25T17:15:48.117Z,23.20
2023-05-25T17:18:15.946Z,23.00
2023-05-25T17:20:42.918Z,22.80
2023-05-25T17:23:09.881Z,22.60
2023-05-25T17:25:37.502Z,22.40
2023-05-25T17:28:04.289Z,22.30
2023-05-25T17:30:31.068Z,22.20
2023-05-25T17:33:01.597Z,22.10
2023-05-25T17:35:31.523Z,22.20
2023-05-25T17:38:00.152Z,22.10
2023-05-25T17:40:26.986Z,21.90
2023-05-25T17:42:53.888Z,21.70
2023-05-25T17:45:20.808Z,21.60
2023-05-25T17:47:47.925Z,21.40
2023-05-25T17:50:15.162Z,21.40
2023-05-25T17:52:42.669Z,21.30
2023-05-25T17:55:09.686Z,21.20
2023-05-25T17:57:36.637Z,21.10
2023-05-25T18:00:04.248Z,21.00
2023-05-25T18:02:31.462Z,20.80
2023-05-25T18:04:58.556Z,20.70
2023-05-25T18:07:25.605Z,20.70
2023-05-25T18:09:52.495Z,20.60
2023-05-25T18:12:19.502Z,20.50
2023-05-25T18:14:46.846Z,20.40
2023-05-25T18:17:14.859Z,20.40
2023-05-25T18:19:43.024Z,20.30
2023-05-25T18:22:10.556Z,20.20
2023-05-25T18:24:38.250Z,20.00
2023-05-25T18:27:14.770Z,19.90
2023-05-25T18:29:42.001Z,19.80
2023-05-25T18:32:08.943Z,19.70
2023-05-25T18:34:38.797Z,19.60
2023-05-25T18:37:05.885Z,19.60
2023-05-25T18:39:34.006Z,19.50
2023-05-25T18:42:01.724Z,19.40
2023-05-25T18:44:28.956Z,19.30
2023-05-25T18:46:57.444Z,19.20
2023-05-25T18:49:24.617Z,19.10
2023-05-25T18:51:51.415Z,19.00
2023-05-25T18:54:18.295Z,19.00
2023-05-25T18:56:45.127Z,18.90
2023-05-25T18:59:12.103Z,18.80
2023-05-25T19:01:38.936Z,18.60
2023-05-25T19:04:06.044Z,18.60
2023-05-25T19:06:33.249Z,18.50
2023-05-25T19:09:00.185Z,18.40
2023-05-25T19:11:27.048Z,18.30
2023-05-25T19:13:53.823Z,18.20
2023-05-25T19:16:20.712Z,18.00
2023-05-25T19:18:47.766Z,18.00
2023-05-25T19:21:14.617Z,18.00
2023-05-25T19:23:49.689Z,17.90
2023-05-25T19:43:14.002Z,17.00
2023-05-25T19:45:41.347Z,16.90
2023-05-25T19:48:08.842Z,16.80
2023-05-25T19:50:36.873Z,16.70
2023-05-25T19:53:03.971Z,16.60
2023-05-25T19:55:33.629Z,16.60
2023-05-25T19:58:00.515Z,16.50
2023-05-25T20:00:27.536Z,16.40
2023-05-25T20:02:54.539Z,16.30
2023-05-25T20:05:21.653Z,16.20
2023-05-25T20:07:50.440Z,16.10
2023-05-25T20:10:17.371Z,16.10
2023-05-25T20:12:44.252Z,16.00
2023-05-25T20:15:11.335Z,15.90
2023-05-25T20:17:38.300Z,15.90
2023-05-25T20:20:05.581Z,15.80
2023-05-25T20:22:33.200Z,15.70
2023-05-25T20:25:00.972Z,15.60
2023-05-25T20:27:28.311Z,15.60
2023-05-25T20:29:56.884Z,15.50
2023-05-25T20:32:23.845Z,15.50
2023-05-25T20:34:54.189Z,15.40
2023-05-25T20:37:24.056Z,15.30
2023-05-25T20:40:03.779Z,15.30
2023-05-25T20:42:30.861Z,15.30
2023-05-25T20:44:58.005Z,15.20
2023-05-25T20:47:24.904Z,15.20
2023-05-25T20:49:51.973Z,15.10
2023-05-25T20:52:18.843Z,15.00
2023-05-25T20:54:46.255Z,15.00
2023-05-25T20:57:14.911Z,14.90
2023-05-25T20:59:41.947Z,14.90
2023-05-25T21:02:08.974Z,14.90
2023-05-25T21:04:36.131Z,14.90
2023-05-25T21:07:07.249Z,14.90
2023-05-25T21:09:35.823Z,14.90
2023-05-25T21:12:03.683Z,14.90
2023-05-25T21:14:42.802Z,14.80
2023-05-25T21:45:52.206Z,14.90
2023-05-25T21:48:29.933Z,14.90
2023-05-25T21:50:57.144Z,14.90
2023-05-25T21:53:24.125Z,14.80
2023-05-25T21:55:52.929Z,14.80
2023-05-25T21:58:22.328Z,14.80
2023-05-25T22:09:19.261Z,14.50
2023-05-25T22:11:46.205Z,14.50
2023-05-25T22:14:13.141Z,14.40
2023-05-25T22:16:41.260Z,14.30
2023-05-25T22:19:08.333Z,14.30
2023-05-25T22:21:35.217Z,14.20
2023-05-25T22:24:02.151Z,14.10
2023-05-25T22:26:29.370Z,14.10
2023-05-25T22:28:56.347Z,14.00
2023-05-25T22:31:26.878Z,14.00
2023-05-25T22:33:54.111Z,13.90
2023-05-25T22:36:21.046Z,13.80
2023-05-25T22:38:47.885Z,13.80
2023-05-25T22:41:14.933Z,13.70
2023-05-25T22:43:42.011Z,13.70
2023-05-25T22:46:09.722Z,13.60
2023-05-25T22:48:36.783Z,13.50
2023-05-25T22:51:03.964Z,13.50
2023-05-25T22:53:30.876Z,13.50
2023-05-25T22:55:58.703Z,13.40
2023-05-25T22:58:25.763Z,13.30
2023-05-25T23:00:53.673Z,13.30
2023-05-25T23:03:21.084Z,13.20
2023-05-25T23:05:48.197Z,13.20
2023-05-25T23:08:15.345Z,13.10
2023-05-25T23:10:42.381Z,13.10
2023-05-25T23:13:09.342Z,13.00
2023-05-25T23:15:40.110Z,12.90
2023-05-25T23:18:07.252Z,12.90
2023-05-25T23:20:35.721Z,12.80
2023-05-25T23:23:02.672Z,12.80
2023-05-25T23:25:29.688Z,12.80
2023-05-25T23:27:56.725Z,12.80
2023-05-25T23:30:24.001Z,12.80
2023-05-25T23:32:51.805Z,12.80
2023-05-25T23:35:18.904Z,12.80
2023-05-25T23:37:46.226Z,12.80
2023-05-25T23:40:13.441Z,12.70
2023-05-25T23:42:43.221Z,12.70
2023-05-25T23:45:10.528Z,12.60
2023-05-25T23:47:37.497Z,12.60
2023-05-25T23:50:04.700Z,12.60
2023-05-25T23:52:31.845Z,12.60
2023-05-25T23:54:59.059Z,12.50
2023-05-25T23:57:26.976Z,12.50
2023-05-25T23:59:54.271Z,12.50
